sensor_id;sensor_type;location;lat;lon;timestamp;temperature;humidity
22680;DHT22;11507;44.858;10.374;2022-08-24T00:01:07;19.00;99.90
22680;DHT22;11507;44.858;10.374;2022-08-24T00:03:35;19.00;99.90
22680;DHT22;11507;44.858;10.374;2022-08-24T00:06:03;19.00;99.90
22680;DHT22;11507;44.858;10.374;2022-08-24T00:08:30;19.00;99.90
22680;DHT22;11507;44.858;10.374;2022-08-24T00:10:56;18.90;99.90
22680;DHT22;11507;44.858;10.374;2022-08-24T00:13:22;18.90;99.90
22680;DHT22;11507;44.858;10.374;2022-08-24T00:15:48;18.90;99.90
22680;DHT22;11507;44.858;10.374;2022-08-24T00:18:13;18.80;99.90
22680;DHT22;11507;44.858;10.374;2022-08-24T00:20:40;18.80;99.90
22680;DHT22;11507;44.858;10.374;2022-08-24T00:23:08;18.70;99.90
22680;DHT22;11507;44.858;10.374;2022-08-24T00:25:34;18.60;99.90
22680;DHT22;11507;44.858;10.374;2022-08-24T00:28:02;18.60;99.90
22680;DHT22;11507;44.858;10.374;2022-08-24T00:30:29;18.60;99.90
22680;DHT22;11507;44.858;10.374;2022-08-24T00:32:55;18.50;99.90
22680;DHT22;11507;44.858;10.374;2022-08-24T00:35:22;18.50;99.90
22680;DHT22;11507;44.858;10.374;2022-08-24T00:37:50;18.50;99.90
22680;DHT22;11507;44.858;10.374;2022-08-24T00:40:28;18.50;99.90
22680;DHT22;11507;44.858;10.374;2022-08-24T00:42:56;18.50;99.90
22680;DHT22;11507;44.858;10.374;2022-08-24T00:45:30;18.50;99.90
22680;DHT22;11507;44.858;10.374;2022-08-24T00:48:04;18.50;99.90
22680;DHT22;11507;44.858;10.374;2022-08-24T00:50:39;18.40;99.90
22680;DHT22;11507;44.858;10.374;2022-08-24T00:53:16;18.50;99.90
22680;DHT22;11507;44.858;10.374;2022-08-24T00:55:50;18.50;99.90
22680;DHT22;11507;44.858;10.374;2022-08-24T00:58:27;18.40;99.90
22680;DHT22;11507;44.858;10.374;2022-08-24T01:00:57;18.40;99.90
22680;DHT22;11507;44.858;10.374;2022-08-24T01:03:26;18.40;99.90
22680;DHT22;11507;44.858;10.374;2022-08-24T01:05:52;18.50;99.90
22680;DHT22;11507;44.858;10.374;2022-08-24T01:08:19;18.40;99.90
22680;DHT22;11507;44.858;10.374;2022-08-24T01:11:00;18.40;99.90
22680;DHT22;11507;44.858;10.374;2022-08-24T01:13:27;18.40;99.90
22680;DHT22;11507;44.858;10.374;2022-08-24T01:16:02;18.40;99.90
22680;DHT22;11507;44.858;10.374;2022-08-24T01:18:30;18.30;99.90
22680;DHT22;11507;44.858;10.374;2022-08-24T01:21:24;18.30;99.90
22680;DHT22;11507;44.858;10.374;2022-08-24T01:23:55;18.30;99.90
22680;DHT22;11507;44.858;10.374;2022-08-24T01:26:34;18.30;99.90
22680;DHT22;11507;44.858;10.374;2022-08-24T01:29:08;18.20;99.90
22680;DHT22;11507;44.858;10.374;2022-08-24T01:31:35;18.20;99.90
22680;DHT22;11507;44.858;10.374;2022-08-24T01:34:01;18.10;99.90
22680;DHT22;11507;44.858;10.374;2022-08-24T01:36:30;18.00;99.90
22680;DHT22;11507;44.858;10.374;2022-08-24T01:38:59;18.00;99.90
22680;DHT22;11507;44.858;10.374;2022-08-24T01:41:27;17.90;99.90
22680;DHT22;11507;44.858;10.374;2022-08-24T01:43:53;17.90;99.90
22680;DHT22;11507;44.858;10.374;2022-08-24T01:46:19;17.80;99.90
22680;DHT22;11507;44.858;10.374;2022-08-24T01:48:46;17.80;99.90
22680;DHT22;11507;44.858;10.374;2022-08-24T01:51:11;17.70;99.90
22680;DHT22;11507;44.858;10.374;2022-08-24T01:53:37;17.60;99.90
22680;DHT22;11507;44.858;10.374;2022-08-24T01:56:04;17.60;99.90
22680;DHT22;11507;44.858;10.374;2022-08-24T01:58:31;17.60;99.90
22680;DHT22;11507;44.858;10.374;2022-08-24T02:00:58;17.50;99.90
22680;DHT22;11507;44.858;10.374;2022-08-24T02:03:24;17.50;99.90
22680;DHT22;11507;44.858;10.374;2022-08-24T02:05:53;17.40;99.90
22680;DHT22;11507;44.858;10.374;2022-08-24T02:08:19;17.40;99.90
22680;DHT22;11507;44.858;10.374;2022-08-24T02:10:45;17.40;99.90
22680;DHT22;11507;44.858;10.374;2022-08-24T02:13:13;17.40;99.90
22680;DHT22;11507;44.858;10.374;2022-08-24T02:15:39;17.40;99.90
22680;DHT22;11507;44.858;10.374;2022-08-24T02:18:08;17.40;99.90
22680;DHT22;11507;44.858;10.374;2022-08-24T02:20:35;17.40;99.90
22680;DHT22;11507;44.858;10.374;2022-08-24T02:23:04;17.40;99.90
22680;DHT22;11507;44.858;10.374;2022-08-24T02:25:32;17.40;99.90
22680;DHT22;11507;44.858;10.374;2022-08-24T02:27:59;17.40;99.90
22680;DHT22;11507;44.858;10.374;2022-08-24T02:30:28;17.40;99.90
22680;DHT22;11507;44.858;10.374;2022-08-24T02:32:54;17.40;99.90
22680;DHT22;11507;44.858;10.374;2022-08-24T02:35:20;17.30;99.90
22680;DHT22;11507;44.858;10.374;2022-08-24T02:37:48;17.30;99.90
22680;DHT22;11507;44.858;10.374;2022-08-24T02:40:14;17.30;99.90
22680;DHT22;11507;44.858;10.374;2022-08-24T02:42:42;17.20;99.90
22680;DHT22;11507;44.858;10.374;2022-08-24T02:45:09;17.20;99.90
22680;DHT22;11507;44.858;10.374;2022-08-24T02:47:36;17.20;99.90
22680;DHT22;11507;44.858;10.374;2022-08-24T02:50:06;17.10;99.90
22680;DHT22;11507;44.858;10.374;2022-08-24T02:52:33;17.10;99.90
22680;DHT22;11507;44.858;10.374;2022-08-24T02:55:01;17.10;99.90
22680;DHT22;11507;44.858;10.374;2022-08-24T02:57:28;17.10;99.90
22680;DHT22;11507;44.858;10.374;2022-08-24T02:59:54;17.10;99.90
22680;DHT22;11507;44.858;10.374;2022-08-24T03:02:21;17.00;99.90
22680;DHT22;11507;44.858;10.374;2022-08-24T03:04:47;17.10;99.90
22680;DHT22;11507;44.858;10.374;2022-08-24T03:07:13;17.00;99.90
22680;DHT22;11507;44.858;10.374;2022-08-24T03:09:39;17.10;99.90
22680;DHT22;11507;44.858;10.374;2022-08-24T03:12:05;17.10;99.90
22680;DHT22;11507;44.858;10.374;2022-08-24T03:14:32;17.10;99.90
22680;DHT22;11507;44.858;10.374;2022-08-24T03:17:00;17.10;99.90
22680;DHT22;11507;44.858;10.374;2022-08-24T03:19:28;17.10;99.90
22680;DHT22;11507;44.858;10.374;2022-08-24T03:21:55;17.10;99.90
22680;DHT22;11507;44.858;10.374;2022-08-24T03:24:21;17.10;99.90
22680;DHT22;11507;44.858;10.374;2022-08-24T03:26:48;17.10;99.90
22680;DHT22;11507;44.858;10.374;2022-08-24T03:29:14;17.10;99.90
22680;DHT22;11507;44.858;10.374;2022-08-24T03:31:42;17.00;99.90
22680;DHT22;11507;44.858;10.374;2022-08-24T03:34:08;17.00;99.90
22680;DHT22;11507;44.858;10.374;2022-08-24T03:36:34;17.00;99.90
22680;DHT22;11507;44.858;10.374;2022-08-24T03:39:01;17.00;99.90
22680;DHT22;11507;44.858;10.374;2022-08-24T03:41:27;17.00;99.90
22680;DHT22;11507;44.858;10.374;2022-08-24T03:43:53;17.00;99.90
22680;DHT22;11507;44.858;10.374;2022-08-24T03:46:26;17.00;99.90
22680;DHT22;11507;44.858;10.374;2022-08-24T03:48:57;17.10;99.90
22680;DHT22;11507;44.858;10.374;2022-08-24T03:51:26;17.10;99.90
22680;DHT22;11507;44.858;10.374;2022-08-24T03:53:53;17.00;99.90
22680;DHT22;11507;44.858;10.374;2022-08-24T03:56:22;17.10;99.90
22680;DHT22;11507;44.858;10.374;2022-08-24T03:58:49;17.10;99.90
22680;DHT22;11507;44.858;10.374;2022-08-24T04:01:16;17.10;99.90
22680;DHT22;11507;44.858;10.374;2022-08-24T04:03:44;17.20;99.90
22680;DHT22;11507;44.858;10.374;2022-08-24T04:06:13;17.20;99.90
22680;DHT22;11507;44.858;10.374;2022-08-24T04:08:40;17.20;99.90
22680;DHT22;11507;44.858;10.374;2022-08-24T04:11:12;17.20;99.90
22680;DHT22;11507;44.858;10.374;2022-08-24T04:13:43;17.20;99.90
22680;DHT22;11507;44.858;10.374;2022-08-24T04:16:12;17.20;99.90
22680;DHT22;11507;44.858;10.374;2022-08-24T04:18:40;17.10;99.90
22680;DHT22;11507;44.858;10.374;2022-08-24T04:21:21;17.10;99.90
22680;DHT22;11507;44.858;10.374;2022-08-24T04:23:47;17.10;99.90
22680;DHT22;11507;44.858;10.374;2022-08-24T04:26:17;17.10;99.90
22680;DHT22;11507;44.858;10.374;2022-08-24T04:28:43;17.00;99.90
22680;DHT22;11507;44.858;10.374;2022-08-24T04:31:09;17.00;99.90
22680;DHT22;11507;44.858;10.374;2022-08-24T04:33:40;17.00;99.90
22680;DHT22;11507;44.858;10.374;2022-08-24T04:36:08;17.00;99.90
22680;DHT22;11507;44.858;10.374;2022-08-24T04:38:37;17.00;99.90
22680;DHT22;11507;44.858;10.374;2022-08-24T04:41:18;16.90;99.90
22680;DHT22;11507;44.858;10.374;2022-08-24T04:43:45;17.00;99.90
22680;DHT22;11507;44.858;10.374;2022-08-24T04:46:14;17.00;99.90
22680;DHT22;11507;44.858;10.374;2022-08-24T04:48:43;17.00;99.90
22680;DHT22;11507;44.858;10.374;2022-08-24T04:51:11;17.00;99.90
22680;DHT22;11507;44.858;10.374;2022-08-24T04:53:37;17.00;99.90
22680;DHT22;11507;44.858;10.374;2022-08-24T04:56:07;17.00;99.90
22680;DHT22;11507;44.858;10.374;2022-08-24T04:58:33;17.00;99.90
22680;DHT22;11507;44.858;10.374;2022-08-24T05:00:59;17.10;99.90
22680;DHT22;11507;44.858;10.374;2022-08-24T05:03:25;17.20;99.90
22680;DHT22;11507;44.858;10.374;2022-08-24T05:06:06;17.20;99.90
22680;DHT22;11507;44.858;10.374;2022-08-24T05:08:33;17.40;99.90
22680;DHT22;11507;44.858;10.374;2022-08-24T05:10:59;17.40;99.90
22680;DHT22;11507;44.858;10.374;2022-08-24T05:13:30;17.60;99.90
22680;DHT22;11507;44.858;10.374;2022-08-24T05:15:56;17.70;99.90
22680;DHT22;11507;44.858;10.374;2022-08-24T05:18:22;17.80;99.90
22680;DHT22;11507;44.858;10.374;2022-08-24T05:20:48;17.90;99.90
22680;DHT22;11507;44.858;10.374;2022-08-24T05:23:14;18.00;99.90
22680;DHT22;11507;44.858;10.374;2022-08-24T05:25:41;18.10;99.90
22680;DHT22;11507;44.858;10.374;2022-08-24T05:28:07;18.20;99.90
22680;DHT22;11507;44.858;10.374;2022-08-24T05:30:33;18.30;99.90
22680;DHT22;11507;44.858;10.374;2022-08-24T05:33:00;18.40;99.90
22680;DHT22;11507;44.858;10.374;2022-08-24T05:35:26;18.50;99.90
22680;DHT22;11507;44.858;10.374;2022-08-24T05:37:52;18.60;99.90
22680;DHT22;11507;44.858;10.374;2022-08-24T05:40:19;18.80;99.90
22680;DHT22;11507;44.858;10.374;2022-08-24T05:42:49;18.90;99.90
22680;DHT22;11507;44.858;10.374;2022-08-24T05:45:15;19.00;99.90
22680;DHT22;11507;44.858;10.374;2022-08-24T05:47:42;19.10;99.90
22680;DHT22;11507;44.858;10.374;2022-08-24T05:50:34;19.30;99.90
22680;DHT22;11507;44.858;10.374;2022-08-24T05:52:59;19.40;99.90
22680;DHT22;11507;44.858;10.374;2022-08-24T05:55:25;19.50;99.90
22680;DHT22;11507;44.858;10.374;2022-08-24T05:57:51;19.70;99.90
22680;DHT22;11507;44.858;10.374;2022-08-24T06:00:21;19.90;99.90
22680;DHT22;11507;44.858;10.374;2022-08-24T06:02:50;20.10;99.90
22680;DHT22;11507;44.858;10.374;2022-08-24T06:05:19;20.30;99.90
22680;DHT22;11507;44.858;10.374;2022-08-24T06:07:46;20.50;99.90
22680;DHT22;11507;44.858;10.374;2022-08-24T06:10:12;20.70;99.90
22680;DHT22;11507;44.858;10.374;2022-08-24T06:12:38;20.90;99.90
22680;DHT22;11507;44.858;10.374;2022-08-24T06:15:06;21.10;99.90
22680;DHT22;11507;44.858;10.374;2022-08-24T06:17:32;21.20;99.90
22680;DHT22;11507;44.858;10.374;2022-08-24T06:20:00;21.40;99.90
22680;DHT22;11507;44.858;10.374;2022-08-24T06:22:29;21.60;99.90
22680;DHT22;11507;44.858;10.374;2022-08-24T06:24:55;21.80;99.90
22680;DHT22;11507;44.858;10.374;2022-08-24T06:27:40;22.10;99.90
22680;DHT22;11507;44.858;10.374;2022-08-24T06:30:07;22.30;99.90
22680;DHT22;11507;44.858;10.374;2022-08-24T06:32:47;22.50;99.90
22680;DHT22;11507;44.858;10.374;2022-08-24T06:35:25;22.60;99.90
22680;DHT22;11507;44.858;10.374;2022-08-24T06:37:51;22.90;99.90
22680;DHT22;11507;44.858;10.374;2022-08-24T06:40:18;23.00;99.90
22680;DHT22;11507;44.858;10.374;2022-08-24T06:42:46;23.10;99.90
22680;DHT22;11507;44.858;10.374;2022-08-24T06:45:21;23.20;99.90
22680;DHT22;11507;44.858;10.374;2022-08-24T06:47:47;23.40;99.90
22680;DHT22;11507;44.858;10.374;2022-08-24T06:50:14;23.50;99.90
22680;DHT22;11507;44.858;10.374;2022-08-24T06:52:40;23.60;99.90
22680;DHT22;11507;44.858;10.374;2022-08-24T06:55:06;23.70;99.90
22680;DHT22;11507;44.858;10.374;2022-08-24T06:57:32;23.90;99.90
22680;DHT22;11507;44.858;10.374;2022-08-24T06:59:58;24.00;99.90
22680;DHT22;11507;44.858;10.374;2022-08-24T07:02:24;24.20;99.90
22680;DHT22;11507;44.858;10.374;2022-08-24T07:04:51;24.30;99.90
22680;DHT22;11507;44.858;10.374;2022-08-24T07:07:36;24.40;99.90
22680;DHT22;11507;44.858;10.374;2022-08-24T07:10:03;24.60;99.90
22680;DHT22;11507;44.858;10.374;2022-08-24T07:12:29;24.60;99.90
22680;DHT22;11507;44.858;10.374;2022-08-24T07:14:55;24.80;99.90
22680;DHT22;11507;44.858;10.374;2022-08-24T07:17:22;24.90;99.90
22680;DHT22;11507;44.858;10.374;2022-08-24T07:19:48;24.90;99.90
22680;DHT22;11507;44.858;10.374;2022-08-24T07:22:32;25.10;99.90
22680;DHT22;11507;44.858;10.374;2022-08-24T07:24:59;25.30;99.90
22680;DHT22;11507;44.858;10.374;2022-08-24T07:27:26;25.50;99.90
22680;DHT22;11507;44.858;10.374;2022-08-24T07:29:53;25.60;99.90
22680;DHT22;11507;44.858;10.374;2022-08-24T07:32:20;25.80;99.90
22680;DHT22;11507;44.858;10.374;2022-08-24T07:34:47;26.00;99.90
22680;DHT22;11507;44.858;10.374;2022-08-24T07:37:13;26.20;99.90
22680;DHT22;11507;44.858;10.374;2022-08-24T07:39:43;26.50;99.90
22680;DHT22;11507;44.858;10.374;2022-08-24T07:42:11;26.60;99.90
22680;DHT22;11507;44.858;10.374;2022-08-24T07:44:38;26.60;99.90
22680;DHT22;11507;44.858;10.374;2022-08-24T07:47:04;26.80;99.90
22680;DHT22;11507;44.858;10.374;2022-08-24T07:49:30;26.90;99.90
22680;DHT22;11507;44.858;10.374;2022-08-24T07:51:57;27.00;99.90
22680;DHT22;11507;44.858;10.374;2022-08-24T07:54:23;27.20;99.90
22680;DHT22;11507;44.858;10.374;2022-08-24T07:56:50;27.30;99.90
22680;DHT22;11507;44.858;10.374;2022-08-24T07:59:17;27.50;99.90
22680;DHT22;11507;44.858;10.374;2022-08-24T08:01:43;27.50;99.90
22680;DHT22;11507;44.858;10.374;2022-08-24T08:04:11;27.60;99.90
22680;DHT22;11507;44.858;10.374;2022-08-24T08:06:40;27.70;99.90
22680;DHT22;11507;44.858;10.374;2022-08-24T08:09:06;27.80;99.90
22680;DHT22;11507;44.858;10.374;2022-08-24T08:11:32;27.90;99.90
22680;DHT22;11507;44.858;10.374;2022-08-24T08:14:00;27.90;99.90
22680;DHT22;11507;44.858;10.374;2022-08-24T08:16:25;28.00;99.90
22680;DHT22;11507;44.858;10.374;2022-08-24T08:18:53;28.10;99.90
22680;DHT22;11507;44.858;10.374;2022-08-24T08:21:19;28.20;99.90
22680;DHT22;11507;44.858;10.374;2022-08-24T08:24:20;28.40;99.90
22680;DHT22;11507;44.858;10.374;2022-08-24T08:26:53;28.50;99.90
22680;DHT22;11507;44.858;10.374;2022-08-24T08:29:25;28.50;99.90
22680;DHT22;11507;44.858;10.374;2022-08-24T08:31:52;28.60;99.90
22680;DHT22;11507;44.858;10.374;2022-08-24T08:34:19;28.70;99.90
22680;DHT22;11507;44.858;10.374;2022-08-24T08:36:46;28.90;99.90
22680;DHT22;11507;44.858;10.374;2022-08-24T08:39:17;29.10;99.90
22680;DHT22;11507;44.858;10.374;2022-08-24T08:58:53;29.60;99.90
22680;DHT22;11507;44.858;10.374;2022-08-24T09:13:10;30.00;97.50
22680;DHT22;11507;44.858;10.374;2022-08-24T09:18:31;30.20;97.60
22680;DHT22;11507;44.858;10.374;2022-08-24T09:23:55;30.50;96.60
22680;DHT22;11507;44.858;10.374;2022-08-24T09:29:17;30.90;96.30
22680;DHT22;11507;44.858;10.374;2022-08-24T09:31:48;31.10;96.20
22680;DHT22;11507;44.858;10.374;2022-08-24T09:34:33;31.20;94.20
22680;DHT22;11507;44.858;10.374;2022-08-24T09:38:16;31.10;93.70
22680;DHT22;11507;44.858;10.374;2022-08-24T09:46:17;32.10;93.30
22680;DHT22;11507;44.858;10.374;2022-08-24T09:52:17;32.90;91.30
22680;DHT22;11507;44.858;10.374;2022-08-24T10:00:26;33.40;86.20
22680;DHT22;11507;44.858;10.374;2022-08-24T10:02:58;33.50;84.70
22680;DHT22;11507;44.858;10.374;2022-08-24T10:17:22;34.00;87.90
22680;DHT22;11507;44.858;10.374;2022-08-24T10:22:57;34.30;82.90
22680;DHT22;11507;44.858;10.374;2022-08-24T10:25:53;34.60;81.50
22680;DHT22;11507;44.858;10.374;2022-08-24T10:31:07;35.00;77.40
22680;DHT22;11507;44.858;10.374;2022-08-24T10:53:33;36.60;71.30
22680;DHT22;11507;44.858;10.374;2022-08-24T10:56:06;37.00;72.40
22680;DHT22;11507;44.858;10.374;2022-08-24T10:58:44;37.20;69.80
22680;DHT22;11507;44.858;10.374;2022-08-24T11:01:22;37.60;70.20
22680;DHT22;11507;44.858;10.374;2022-08-24T11:06:16;38.20;66.90
22680;DHT22;11507;44.858;10.374;2022-08-24T11:09:15;38.40;63.90
22680;DHT22;11507;44.858;10.374;2022-08-24T11:11:45;38.60;61.00
22680;DHT22;11507;44.858;10.374;2022-08-24T11:16:42;38.70;59.70
22680;DHT22;11507;44.858;10.374;2022-08-24T11:19:29;38.30;64.60
22680;DHT22;11507;44.858;10.374;2022-08-24T11:22:05;38.40;62.70
22680;DHT22;11507;44.858;10.374;2022-08-24T11:24:47;38.80;64.10
22680;DHT22;11507;44.858;10.374;2022-08-24T11:32:43;39.30;59.00
22680;DHT22;11507;44.858;10.374;2022-08-24T11:35:26;39.70;59.80
22680;DHT22;11507;44.858;10.374;2022-08-24T11:37:56;39.60;54.80
22680;DHT22;11507;44.858;10.374;2022-08-24T11:40:29;39.70;57.20
22680;DHT22;11507;44.858;10.374;2022-08-24T11:54:30;39.50;56.50
22680;DHT22;11507;44.858;10.374;2022-08-24T11:57:14;39.50;57.20
22680;DHT22;11507;44.858;10.374;2022-08-24T12:02:45;40.40;56.00
22680;DHT22;11507;44.858;10.374;2022-08-24T12:19:20;42.40;52.50
22680;DHT22;11507;44.858;10.374;2022-08-24T12:21:52;41.60;50.60
22680;DHT22;11507;44.858;10.374;2022-08-24T12:24:36;40.90;51.60
22680;DHT22;11507;44.858;10.374;2022-08-24T12:27:19;41.10;51.80
22680;DHT22;11507;44.858;10.374;2022-08-24T12:30:01;41.00;50.60
22680;DHT22;11507;44.858;10.374;2022-08-24T12:33:27;41.20;51.50
22680;DHT22;11507;44.858;10.374;2022-08-24T12:35:45;41.30;52.60
22680;DHT22;11507;44.858;10.374;2022-08-24T12:44:14;42.20;51.30
22680;DHT22;11507;44.858;10.374;2022-08-24T12:46:40;42.80;48.70
22680;DHT22;11507;44.858;10.374;2022-08-24T12:49:31;42.70;48.30
22680;DHT22;11507;44.858;10.374;2022-08-24T12:52:24;42.70;47.90
22680;DHT22;11507;44.858;10.374;2022-08-24T12:55:22;42.90;49.40
22680;DHT22;11507;44.858;10.374;2022-08-24T13:00:36;43.20;48.00
22680;DHT22;11507;44.858;10.374;2022-08-24T13:03:06;43.30;47.60
22680;DHT22;11507;44.858;10.374;2022-08-24T13:05:45;43.60;46.90
22680;DHT22;11507;44.858;10.374;2022-08-24T13:08:34;43.90;46.50
22680;DHT22;11507;44.858;10.374;2022-08-24T13:11:13;44.10;45.70
22680;DHT22;11507;44.858;10.374;2022-08-24T13:17:07;43.70;44.50
22680;DHT22;11507;44.858;10.374;2022-08-24T13:19:40;44.00;46.30
22680;DHT22;11507;44.858;10.374;2022-08-24T13:24:45;44.30;45.10
22680;DHT22;11507;44.858;10.374;2022-08-24T13:30:07;45.10;45.50
22680;DHT22;11507;44.858;10.374;2022-08-24T13:32:46;44.90;42.90
22680;DHT22;11507;44.858;10.374;2022-08-24T13:40:52;43.40;43.60
22680;DHT22;11507;44.858;10.374;2022-08-24T13:43:38;42.70;44.40
22680;DHT22;11507;44.858;10.374;2022-08-24T13:46:43;42.20;45.70
22680;DHT22;11507;44.858;10.374;2022-08-24T13:51:48;41.50;45.30
22680;DHT22;11507;44.858;10.374;2022-08-24T13:54:25;41.20;46.70
22680;DHT22;11507;44.858;10.374;2022-08-24T13:57:18;41.60;46.70
22680;DHT22;11507;44.858;10.374;2022-08-24T14:06:18;43.20;45.40
22680;DHT22;11507;44.858;10.374;2022-08-24T14:11:09;43.60;43.60
22680;DHT22;11507;44.858;10.374;2022-08-24T14:21:35;43.10;44.40
22680;DHT22;11507;44.858;10.374;2022-08-24T14:24:10;42.90;46.10
22680;DHT22;11507;44.858;10.374;2022-08-24T14:37:17;43.90;43.80
22680;DHT22;11507;44.858;10.374;2022-08-24T14:39:55;43.80;43.60
22680;DHT22;11507;44.858;10.374;2022-08-24T14:42:40;43.60;45.50
22680;DHT22;11507;44.858;10.374;2022-08-24T14:48:26;44.00;43.00
22680;DHT22;11507;44.858;10.374;2022-08-24T14:51:37;44.20;43.40
22680;DHT22;11507;44.858;10.374;2022-08-24T14:56:38;44.70;43.80
22680;DHT22;11507;44.858;10.374;2022-08-24T15:07:55;43.60;42.50
22680;DHT22;11507;44.858;10.374;2022-08-24T15:10:25;43.60;42.80
22680;DHT22;11507;44.858;10.374;2022-08-24T15:12:59;43.70;42.80
22680;DHT22;11507;44.858;10.374;2022-08-24T15:15:31;43.90;43.40
22680;DHT22;11507;44.858;10.374;2022-08-24T15:28:54;44.00;42.60
22680;DHT22;11507;44.858;10.374;2022-08-24T15:31:25;44.00;43.20
22680;DHT22;11507;44.858;10.374;2022-08-24T15:34:00;44.10;43.70
22680;DHT22;11507;44.858;10.374;2022-08-24T15:36:28;44.10;43.40
22680;DHT22;11507;44.858;10.374;2022-08-24T15:38:58;43.90;43.00
22680;DHT22;11507;44.858;10.374;2022-08-24T15:41:36;43.40;42.50
22680;DHT22;11507;44.858;10.374;2022-08-24T15:44:11;42.50;42.50
22680;DHT22;11507;44.858;10.374;2022-08-24T15:47:27;42.30;44.50
22680;DHT22;11507;44.858;10.374;2022-08-24T15:53:04;42.20;43.80
22680;DHT22;11507;44.858;10.374;2022-08-24T15:58:18;42.50;43.20
22680;DHT22;11507;44.858;10.374;2022-08-24T16:00:46;42.00;43.50
22680;DHT22;11507;44.858;10.374;2022-08-24T16:03:51;41.20;44.70
22680;DHT22;11507;44.858;10.374;2022-08-24T16:06:26;40.80;45.90
22680;DHT22;11507;44.858;10.374;2022-08-24T16:11:49;39.50;46.50
22680;DHT22;11507;44.858;10.374;2022-08-24T16:14:39;38.60;47.60
22680;DHT22;11507;44.858;10.374;2022-08-24T16:19:52;36.30;52.20
22680;DHT22;11507;44.858;10.374;2022-08-24T16:22:36;35.40;52.60
22680;DHT22;11507;44.858;10.374;2022-08-24T16:25:28;34.60;55.20
22680;DHT22;11507;44.858;10.374;2022-08-24T16:30:39;33.40;57.80
22680;DHT22;11507;44.858;10.374;2022-08-24T16:33:06;33.00;57.90
22680;DHT22;11507;44.858;10.374;2022-08-24T16:35:32;32.70;59.00
22680;DHT22;11507;44.858;10.374;2022-08-24T16:37:59;32.40;57.90
22680;DHT22;11507;44.858;10.374;2022-08-24T16:40:26;32.00;57.60
22680;DHT22;11507;44.858;10.374;2022-08-24T16:42:53;31.80;58.00
22680;DHT22;11507;44.858;10.374;2022-08-24T16:45:20;31.70;58.70
22680;DHT22;11507;44.858;10.374;2022-08-24T16:47:47;31.50;59.60
22680;DHT22;11507;44.858;10.374;2022-08-24T16:50:16;31.20;59.70
22680;DHT22;11507;44.858;10.374;2022-08-24T16:52:42;31.00;59.50
22680;DHT22;11507;44.858;10.374;2022-08-24T16:55:10;30.80;60.20
22680;DHT22;11507;44.858;10.374;2022-08-24T16:57:36;30.60;59.60
22680;DHT22;11507;44.858;10.374;2022-08-24T17:00:08;30.40;60.10
22680;DHT22;11507;44.858;10.374;2022-08-24T17:02:36;30.30;61.30
22680;DHT22;11507;44.858;10.374;2022-08-24T17:05:02;30.20;61.50
22680;DHT22;11507;44.858;10.374;2022-08-24T17:07:28;30.00;62.10
22680;DHT22;11507;44.858;10.374;2022-08-24T17:09:55;29.90;62.10
22680;DHT22;11507;44.858;10.374;2022-08-24T17:12:22;29.80;62.70
22680;DHT22;11507;44.858;10.374;2022-08-24T17:14:48;29.70;63.40
22680;DHT22;11507;44.858;10.374;2022-08-24T17:17:17;29.60;64.40
22680;DHT22;11507;44.858;10.374;2022-08-24T17:19:46;29.50;65.00
22680;DHT22;11507;44.858;10.374;2022-08-24T17:22:13;29.40;65.00
22680;DHT22;11507;44.858;10.374;2022-08-24T17:24:38;29.20;65.50
22680;DHT22;11507;44.858;10.374;2022-08-24T17:27:04;29.10;66.40
22680;DHT22;11507;44.858;10.374;2022-08-24T17:29:30;29.00;66.70
22680;DHT22;11507;44.858;10.374;2022-08-24T17:31:57;28.80;67.40
22680;DHT22;11507;44.858;10.374;2022-08-24T17:34:24;28.70;68.30
22680;DHT22;11507;44.858;10.374;2022-08-24T17:36:53;28.60;69.40
22680;DHT22;11507;44.858;10.374;2022-08-24T17:39:20;28.50;70.10
22680;DHT22;11507;44.858;10.374;2022-08-24T17:41:50;28.40;70.70
22680;DHT22;11507;44.858;10.374;2022-08-24T17:44:19;28.20;71.10
22680;DHT22;11507;44.858;10.374;2022-08-24T17:46:49;28.10;71.40
22680;DHT22;11507;44.858;10.374;2022-08-24T17:49:15;27.90;71.70
22680;DHT22;11507;44.858;10.374;2022-08-24T17:51:43;27.80;73.70
22680;DHT22;11507;44.858;10.374;2022-08-24T17:54:09;27.70;73.10
22680;DHT22;11507;44.858;10.374;2022-08-24T17:56:35;27.60;73.40
22680;DHT22;11507;44.858;10.374;2022-08-24T17:59:10;27.50;73.40
22680;DHT22;11507;44.858;10.374;2022-08-24T18:01:57;27.40;74.10
22680;DHT22;11507;44.858;10.374;2022-08-24T18:04:26;27.30;75.80
22680;DHT22;11507;44.858;10.374;2022-08-24T18:06:55;27.20;76.20
22680;DHT22;11507;44.858;10.374;2022-08-24T18:09:30;27.10;77.30
22680;DHT22;11507;44.858;10.374;2022-08-24T18:11:59;26.90;77.90
22680;DHT22;11507;44.858;10.374;2022-08-24T18:14:26;26.80;79.00
22680;DHT22;11507;44.858;10.374;2022-08-24T18:16:54;26.70;79.30
22680;DHT22;11507;44.858;10.374;2022-08-24T18:19:20;26.60;79.40
22680;DHT22;11507;44.858;10.374;2022-08-24T18:21:46;26.50;80.80
22680;DHT22;11507;44.858;10.374;2022-08-24T18:24:12;26.40;81.80
22680;DHT22;11507;44.858;10.374;2022-08-24T18:26:39;26.30;83.20
22680;DHT22;11507;44.858;10.374;2022-08-24T18:29:19;26.20;83.70
22680;DHT22;11507;44.858;10.374;2022-08-24T18:31:46;26.00;85.60
22680;DHT22;11507;44.858;10.374;2022-08-24T18:34:18;25.90;87.30
22680;DHT22;11507;44.858;10.374;2022-08-24T18:36:44;25.80;88.20
22680;DHT22;11507;44.858;10.374;2022-08-24T18:39:10;25.70;89.60
22680;DHT22;11507;44.858;10.374;2022-08-24T18:41:38;25.60;90.10
22680;DHT22;11507;44.858;10.374;2022-08-24T18:44:06;25.60;90.40
22680;DHT22;11507;44.858;10.374;2022-08-24T18:46:33;25.60;90.70
22680;DHT22;11507;44.858;10.374;2022-08-24T18:48:59;25.50;90.50
22680;DHT22;11507;44.858;10.374;2022-08-24T18:51:26;25.50;90.70
22680;DHT22;11507;44.858;10.374;2022-08-24T18:54:00;25.50;91.00
22680;DHT22;11507;44.858;10.374;2022-08-24T18:56:26;25.50;91.00
22680;DHT22;11507;44.858;10.374;2022-08-24T18:58:52;25.40;91.00
22680;DHT22;11507;44.858;10.374;2022-08-24T19:01:20;25.40;91.30
22680;DHT22;11507;44.858;10.374;2022-08-24T19:03:46;25.30;92.10
22680;DHT22;11507;44.858;10.374;2022-08-24T19:06:12;25.20;92.90
22680;DHT22;11507;44.858;10.374;2022-08-24T19:08:38;25.10;93.60
22680;DHT22;11507;44.858;10.374;2022-08-24T19:11:05;25.10;93.80
22680;DHT22;11507;44.858;10.374;2022-08-24T19:13:32;25.00;94.40
22680;DHT22;11507;44.858;10.374;2022-08-24T19:15:58;24.90;96.00
22680;DHT22;11507;44.858;10.374;2022-08-24T19:18:24;24.80;97.40